<?xml version="1.0" encoding="UTF-8" standalone="no" ?>
<gpx xmlns="http://www.topografix.com/GPX/1/1" xmlns:xsi="http://www.w3.org/2001/XMLSchema-instance" xsi:schemaLocation="http://www.topografix.com/GPX/1/1 http://www.topografix.com/GPX/1/1/gpx.xsd" version="1.1" creator="VisuGPX - https://www.visugpx.com">
  <metadata>
    <name>tour de bretagne</name>
    <desc><![CDATA[tracé 2008]]></desc>
  </metadata>
  <trk>
    <name><![CDATA[Grandchamp A Baudequibreizh on GPSies.com]]></name>
    <trkseg>
      <trkpt lat="47.75899" lon="-2.84404">
        <ele>126.3</ele>
        <time>2008-01-18T19:35:56Z</time>
      </trkpt>
      <trkpt lat="47.75929" lon="-2.84481">
        <ele>125.3</ele>
        <time>2008-01-18T19:36:20Z</time>
      </trkpt>
      <trkpt lat="47.75993" lon="-2.84402">
        <ele>123.6</ele>
        <time>2008-01-18T19:36:54Z</time>
      </trkpt>
      <trkpt lat="47.7612" lon="-2.84342">
        <ele>112.1</ele>
        <time>2008-01-18T19:37:47Z</time>
      </trkpt>
      <trkpt lat="47.76211" lon="-2.84344">
        <ele>103.3</ele>
        <time>2008-01-18T19:38:23Z</time>
      </trkpt>
      <trkpt lat="47.76252" lon="-2.84646">
        <ele>108.6</ele>
        <time>2008-01-18T19:39:46Z</time>
      </trkpt>
      <trkpt lat="47.76533" lon="-2.84473">
        <ele>85.6</ele>
        <time>2008-01-18T19:41:48Z</time>
      </trkpt>
      <trkpt lat="47.76602" lon="-2.84462">
        <ele>84.1</ele>
        <time>2008-01-18T19:42:16Z</time>
      </trkpt>
      <trkpt lat="47.7667" lon="-2.84455">
        <ele>82.6</ele>
        <time>2008-01-18T19:42:43Z</time>
      </trkpt>
      <trkpt lat="47.76736" lon="-2.84419">
        <ele>81.2</ele>
        <time>2008-01-18T19:43:11Z</time>
      </trkpt>
      <trkpt lat="47.76908" lon="-2.84362">
        <ele>75.8</ele>
        <time>2008-01-18T19:44:22Z</time>
      </trkpt>
      <trkpt lat="47.77058" lon="-2.84385">
        <ele>70.3</ele>
        <time>2008-01-18T19:45:22Z</time>
      </trkpt>
      <trkpt lat="47.77129" lon="-2.84458">
        <ele>68.6</ele>
        <time>2008-01-18T19:45:56Z</time>
      </trkpt>
      <trkpt lat="47.77229" lon="-2.84588">
        <ele>64.4</ele>
        <time>2008-01-18T19:46:50Z</time>
      </trkpt>
      <trkpt lat="47.77305" lon="-2.84683">
        <ele>60.6</ele>
        <time>2008-01-18T19:47:30Z</time>
      </trkpt>
      <trkpt lat="47.77376" lon="-2.84723">
        <ele>57.4</ele>
        <time>2008-01-18T19:48:00Z</time>
      </trkpt>
      <trkpt lat="47.77394" lon="-2.84793">
        <ele>53.7</ele>
        <time>2008-01-18T19:48:20Z</time>
      </trkpt>
      <trkpt lat="47.77423" lon="-2.84939">
        <ele>52.8</ele>
        <time>2008-01-18T19:49:01Z</time>
      </trkpt>
      <trkpt lat="47.77472" lon="-2.84971">
        <ele>50.6</ele>
        <time>2008-01-18T19:49:22Z</time>
      </trkpt>
      <trkpt lat="47.77491" lon="-2.85159">
        <ele>50.6</ele>
        <time>2008-01-18T19:50:14Z</time>
      </trkpt>
      <trkpt lat="47.77462" lon="-2.853">
        <ele>52.6</ele>
        <time>2008-01-18T19:50:53Z</time>
      </trkpt>
      <trkpt lat="47.77573" lon="-2.85349">
        <ele>49.8</ele>
        <time>2008-01-18T19:51:40Z</time>
      </trkpt>
      <trkpt lat="47.77644" lon="-2.85432">
        <ele>55.7</ele>
        <time>2008-01-18T19:52:16Z</time>
      </trkpt>
      <trkpt lat="47.77719" lon="-2.85613">
        <ele>55.9</ele>
        <time>2008-01-18T19:53:13Z</time>
      </trkpt>
      <trkpt lat="47.77784" lon="-2.85767">
        <ele>56.5</ele>
        <time>2008-01-18T19:54:02Z</time>
      </trkpt>
      <trkpt lat="47.7792" lon="-2.85691">
        <ele>60.8</ele>
        <time>2008-01-18T19:55:00Z</time>
      </trkpt>
      <trkpt lat="47.77988" lon="-2.8561">
        <ele>60.6</ele>
        <time>2008-01-18T19:55:35Z</time>
      </trkpt>
      <trkpt lat="47.7807" lon="-2.85512">
        <ele>63.5</ele>
        <time>2008-01-18T19:56:17Z</time>
      </trkpt>
      <trkpt lat="47.78068" lon="-2.85371">
        <ele>61.5</ele>
        <time>2008-01-18T19:56:55Z</time>
      </trkpt>
      <trkpt lat="47.78058" lon="-2.85285">
        <ele>62.5</ele>
        <time>2008-01-18T19:57:19Z</time>
      </trkpt>
      <trkpt lat="47.78057" lon="-2.85212">
        <ele>63.5</ele>
        <time>2008-01-18T19:57:38Z</time>
      </trkpt>
      <trkpt lat="47.78043" lon="-2.85126">
        <ele>64.8</ele>
        <time>2008-01-18T19:58:02Z</time>
      </trkpt>
      <trkpt lat="47.78093" lon="-2.8481">
        <ele>69.2</ele>
        <time>2008-01-18T19:59:30Z</time>
      </trkpt>
      <trkpt lat="47.78183" lon="-2.8481">
        <ele>70.4</ele>
        <time>2008-01-18T20:00:05Z</time>
      </trkpt>
      <trkpt lat="47.7824" lon="-2.84608">
        <ele>71.4</ele>
        <time>2008-01-18T20:01:04Z</time>
      </trkpt>
      <trkpt lat="47.78511" lon="-2.84227">
        <ele>77.9</ele>
        <time>2008-01-18T20:03:34Z</time>
      </trkpt>
      <trkpt lat="47.78629" lon="-2.84332">
        <ele>71.8</ele>
        <time>2008-01-18T20:04:29Z</time>
      </trkpt>
      <trkpt lat="47.78693" lon="-2.84418">
        <ele>65.5</ele>
        <time>2008-01-18T20:05:03Z</time>
      </trkpt>
      <trkpt lat="47.78791" lon="-2.84538">
        <ele>67.3</ele>
        <time>2008-01-18T20:05:54Z</time>
      </trkpt>
      <trkpt lat="47.78892" lon="-2.84674">
        <ele>73.2</ele>
        <time>2008-01-18T20:06:48Z</time>
      </trkpt>
      <trkpt lat="47.7896" lon="-2.84869">
        <ele>77</ele>
        <time>2008-01-18T20:07:48Z</time>
      </trkpt>
      <trkpt lat="47.79247" lon="-2.84875">
        <ele>78.1</ele>
        <time>2008-01-18T20:09:43Z</time>
      </trkpt>
      <trkpt lat="47.79262" lon="-2.85066">
        <ele>76.2</ele>
        <time>2008-01-18T20:10:34Z</time>
      </trkpt>
      <trkpt lat="47.79271" lon="-2.85251">
        <ele>76.1</ele>
        <time>2008-01-18T20:11:24Z</time>
      </trkpt>
      <trkpt lat="47.79318" lon="-2.85541">
        <ele>80.6</ele>
        <time>2008-01-18T20:12:44Z</time>
      </trkpt>
      <trkpt lat="47.79392" lon="-2.85521">
        <ele>89</ele>
        <time>2008-01-18T20:13:15Z</time>
      </trkpt>
      <trkpt lat="47.79433" lon="-2.85391">
        <ele>95.6</ele>
        <time>2008-01-18T20:13:53Z</time>
      </trkpt>
      <trkpt lat="47.79531" lon="-2.85344">
        <ele>108.4</ele>
        <time>2008-01-18T20:14:34Z</time>
      </trkpt>
      <trkpt lat="47.79643" lon="-2.85394">
        <ele>120.9</ele>
        <time>2008-01-18T20:15:21Z</time>
      </trkpt>
      <trkpt lat="47.79743" lon="-2.85469">
        <ele>133.3</ele>
        <time>2008-01-18T20:16:06Z</time>
      </trkpt>
      <trkpt lat="47.79798" lon="-2.85454">
        <ele>137.5</ele>
        <time>2008-01-18T20:16:28Z</time>
      </trkpt>
      <trkpt lat="47.798" lon="-2.85668">
        <ele>141.1</ele>
        <time>2008-01-18T20:17:26Z</time>
      </trkpt>
      <trkpt lat="47.79759" lon="-2.85673">
        <ele>138.6</ele>
        <time>2008-01-18T20:17:42Z</time>
      </trkpt>
      <trkpt lat="47.79718" lon="-2.85616">
        <ele>134.1</ele>
        <time>2008-01-18T20:18:05Z</time>
      </trkpt>
      <trkpt lat="47.79669" lon="-2.85628">
        <ele>128.7</ele>
        <time>2008-01-18T20:18:25Z</time>
      </trkpt>
      <trkpt lat="47.79635" lon="-2.85621">
        <ele>125.3</ele>
        <time>2008-01-18T20:18:38Z</time>
      </trkpt>
      <trkpt lat="47.79562" lon="-2.8564">
        <ele>117</ele>
        <time>2008-01-18T20:19:08Z</time>
      </trkpt>
      <trkpt lat="47.79487" lon="-2.8566">
        <ele>104.8</ele>
        <time>2008-01-18T20:19:38Z</time>
      </trkpt>
      <trkpt lat="47.7942" lon="-2.85794">
        <ele>90.9</ele>
        <time>2008-01-18T20:20:23Z</time>
      </trkpt>
      <trkpt lat="47.79431" lon="-2.85956">
        <ele>89.6</ele>
        <time>2008-01-18T20:21:07Z</time>
      </trkpt>
      <trkpt lat="47.79448" lon="-2.86416">
        <ele>92</ele>
        <time>2008-01-18T20:23:11Z</time>
      </trkpt>
      <trkpt lat="47.79465" lon="-2.86661">
        <ele>89.1</ele>
        <time>2008-01-18T20:24:17Z</time>
      </trkpt>
      <trkpt lat="47.79497" lon="-2.86929">
        <ele>85.1</ele>
        <time>2008-01-18T20:25:30Z</time>
      </trkpt>
      <trkpt lat="47.79496" lon="-2.86957">
        <ele>83.9</ele>
        <time>2008-01-18T20:25:38Z</time>
      </trkpt>
      <trkpt lat="47.79526" lon="-2.87006">
        <ele>86.8</ele>
        <time>2008-01-18T20:25:56Z</time>
      </trkpt>
      <trkpt lat="47.79544" lon="-2.87073">
        <ele>86.6</ele>
        <time>2008-01-18T20:26:15Z</time>
      </trkpt>
      <trkpt lat="47.79597" lon="-2.87114">
        <ele>91.5</ele>
        <time>2008-01-18T20:26:39Z</time>
      </trkpt>
      <trkpt lat="47.79641" lon="-2.87138">
        <ele>96.2</ele>
        <time>2008-01-18T20:26:57Z</time>
      </trkpt>
      <trkpt lat="47.79623" lon="-2.87074">
        <ele>97.7</ele>
        <time>2008-01-18T20:27:16Z</time>
      </trkpt>
      <trkpt lat="47.79686" lon="-2.87061">
        <ele>110.3</ele>
        <time>2008-01-18T20:27:42Z</time>
      </trkpt>
      <trkpt lat="47.79804" lon="-2.87004">
        <ele>124.4</ele>
        <time>2008-01-18T20:28:31Z</time>
      </trkpt>
      <trkpt lat="47.80175" lon="-2.86917">
        <ele>142.4</ele>
        <time>2008-01-18T20:31:02Z</time>
      </trkpt>
      <trkpt lat="47.8036" lon="-2.86865">
        <ele>140.1</ele>
        <time>2008-01-18T20:32:17Z</time>
      </trkpt>
      <trkpt lat="47.80495" lon="-2.86778">
        <ele>137.8</ele>
        <time>2008-01-18T20:33:16Z</time>
      </trkpt>
      <trkpt lat="47.8067" lon="-2.86751">
        <ele>139.2</ele>
        <time>2008-01-18T20:34:27Z</time>
      </trkpt>
      <trkpt lat="47.8092" lon="-2.88301">
        <ele>154.6</ele>
        <time>2008-01-18T20:41:35Z</time>
      </trkpt>
      <trkpt lat="47.80975" lon="-2.88439">
        <ele>151.7</ele>
        <time>2008-01-18T20:42:18Z</time>
      </trkpt>
      <trkpt lat="47.80876" lon="-2.88559">
        <ele>155.5</ele>
        <time>2008-01-18T20:43:10Z</time>
      </trkpt>
      <trkpt lat="47.80952" lon="-2.88976">
        <ele>152.6</ele>
        <time>2008-01-18T20:45:06Z</time>
      </trkpt>
      <trkpt lat="47.80724" lon="-2.8912">
        <ele>159</ele>
        <time>2008-01-18T20:46:45Z</time>
      </trkpt>
      <trkpt lat="47.80695" lon="-2.89183">
        <ele>158.4</ele>
        <time>2008-01-18T20:47:05Z</time>
      </trkpt>
      <trkpt lat="47.80624" lon="-2.89277">
        <ele>156.5</ele>
        <time>2008-01-18T20:47:43Z</time>
      </trkpt>
      <trkpt lat="47.8059" lon="-2.89294">
        <ele>154.7</ele>
        <time>2008-01-18T20:47:57Z</time>
      </trkpt>
      <trkpt lat="47.80604" lon="-2.89527">
        <ele>145.9</ele>
        <time>2008-01-18T20:49:00Z</time>
      </trkpt>
      <trkpt lat="47.80567" lon="-2.89645">
        <ele>135</ele>
        <time>2008-01-18T20:49:35Z</time>
      </trkpt>
      <trkpt lat="47.80474" lon="-2.89684">
        <ele>121.2</ele>
        <time>2008-01-18T20:50:14Z</time>
      </trkpt>
      <trkpt lat="47.80419" lon="-2.89651">
        <ele>121.4</ele>
        <time>2008-01-18T20:50:38Z</time>
      </trkpt>
      <trkpt lat="47.80332" lon="-2.89683">
        <ele>105.4</ele>
        <time>2008-01-18T20:51:14Z</time>
      </trkpt>
      <trkpt lat="47.80325" lon="-2.89719">
        <ele>108</ele>
        <time>2008-01-18T20:51:24Z</time>
      </trkpt>
      <trkpt lat="47.8033" lon="-2.89765">
        <ele>113</ele>
        <time>2008-01-18T20:51:36Z</time>
      </trkpt>
      <trkpt lat="47.80364" lon="-2.89757">
        <ele>111.9</ele>
        <time>2008-01-18T20:51:50Z</time>
      </trkpt>
      <trkpt lat="47.80394" lon="-2.89791">
        <ele>118.2</ele>
        <time>2008-01-18T20:52:05Z</time>
      </trkpt>
      <trkpt lat="47.80369" lon="-2.89849">
        <ele>126.8</ele>
        <time>2008-01-18T20:52:24Z</time>
      </trkpt>
      <trkpt lat="47.80323" lon="-2.89913">
        <ele>125.8</ele>
        <time>2008-01-18T20:52:49Z</time>
      </trkpt>
      <trkpt lat="47.80315" lon="-2.89987">
        <ele>125.9</ele>
        <time>2008-01-18T20:53:09Z</time>
      </trkpt>
      <trkpt lat="47.80334" lon="-2.90039">
        <ele>128.7</ele>
        <time>2008-01-18T20:53:25Z</time>
      </trkpt>
      <trkpt lat="47.80374" lon="-2.90151">
        <ele>136.4</ele>
        <time>2008-01-18T20:53:59Z</time>
      </trkpt>
      <trkpt lat="47.80523" lon="-2.90439">
        <ele>148.4</ele>
        <time>2008-01-18T20:55:37Z</time>
      </trkpt>
      <trkpt lat="47.8053" lon="-2.90507">
        <ele>149.4</ele>
        <time>2008-01-18T20:55:55Z</time>
      </trkpt>
      <trkpt lat="47.80456" lon="-2.90557">
        <ele>146.4</ele>
        <time>2008-01-18T20:56:28Z</time>
      </trkpt>
      <trkpt lat="47.80406" lon="-2.90673">
        <ele>143.9</ele>
        <time>2008-01-18T20:57:05Z</time>
      </trkpt>
      <trkpt lat="47.80361" lon="-2.9077">
        <ele>140.5</ele>
        <time>2008-01-18T20:57:37Z</time>
      </trkpt>
      <trkpt lat="47.80297" lon="-2.90885">
        <ele>130.8</ele>
        <time>2008-01-18T20:58:17Z</time>
      </trkpt>
      <trkpt lat="47.80314" lon="-2.91071">
        <ele>130.1</ele>
        <time>2008-01-18T20:59:07Z</time>
      </trkpt>
      <trkpt lat="47.80247" lon="-2.91084">
        <ele>117.5</ele>
        <time>2008-01-18T20:59:34Z</time>
      </trkpt>
      <trkpt lat="47.8021" lon="-2.91074">
        <ele>111.3</ele>
        <time>2008-01-18T20:59:49Z</time>
      </trkpt>
      <trkpt lat="47.80183" lon="-2.91169">
        <ele>103.5</ele>
        <time>2008-01-18T21:00:17Z</time>
      </trkpt>
      <trkpt lat="47.80156" lon="-2.91286">
        <ele>97.8</ele>
        <time>2008-01-18T21:00:50Z</time>
      </trkpt>
      <trkpt lat="47.80123" lon="-2.91402">
        <ele>88.9</ele>
        <time>2008-01-18T21:01:24Z</time>
      </trkpt>
      <trkpt lat="47.80142" lon="-2.91525">
        <ele>88</ele>
        <time>2008-01-18T21:01:58Z</time>
      </trkpt>
      <trkpt lat="47.80213" lon="-2.9186">
        <ele>77.7</ele>
        <time>2008-01-18T21:03:32Z</time>
      </trkpt>
      <trkpt lat="47.80203" lon="-2.92037">
        <ele>74.4</ele>
        <time>2008-01-18T21:04:20Z</time>
      </trkpt>
      <trkpt lat="47.80162" lon="-2.922">
        <ele>69.8</ele>
        <time>2008-01-18T21:05:07Z</time>
      </trkpt>
      <trkpt lat="47.80222" lon="-2.92353">
        <ele>66.4</ele>
        <time>2008-01-18T21:05:55Z</time>
      </trkpt>
      <trkpt lat="47.80136" lon="-2.9262">
        <ele>58.6</ele>
        <time>2008-01-18T21:07:14Z</time>
      </trkpt>
      <trkpt lat="47.80154" lon="-2.92919">
        <ele>58.6</ele>
        <time>2008-01-18T21:08:35Z</time>
      </trkpt>
      <trkpt lat="47.80349" lon="-2.93073">
        <ele>80.6</ele>
        <time>2008-01-18T21:10:03Z</time>
      </trkpt>
      <trkpt lat="47.8038" lon="-2.93209">
        <ele>74.4</ele>
        <time>2008-01-18T21:10:42Z</time>
      </trkpt>
      <trkpt lat="47.80491" lon="-2.93394">
        <ele>81</ele>
        <time>2008-01-18T21:11:49Z</time>
      </trkpt>
      <trkpt lat="47.80639" lon="-2.93369">
        <ele>102.6</ele>
        <time>2008-01-18T21:12:49Z</time>
      </trkpt>
      <trkpt lat="47.80825" lon="-2.93314">
        <ele>120.7</ele>
        <time>2008-01-18T21:14:04Z</time>
      </trkpt>
      <trkpt lat="47.80891" lon="-2.93191">
        <ele>125</ele>
        <time>2008-01-18T21:14:47Z</time>
      </trkpt>
      <trkpt lat="47.81113" lon="-2.93219">
        <ele>126.9</ele>
        <time>2008-01-18T21:16:16Z</time>
      </trkpt>
      <trkpt lat="47.81291" lon="-2.93311">
        <ele>128.4</ele>
        <time>2008-01-18T21:17:31Z</time>
      </trkpt>
      <trkpt lat="47.81337" lon="-2.93356">
        <ele>127.6</ele>
        <time>2008-01-18T21:17:53Z</time>
      </trkpt>
      <trkpt lat="47.81383" lon="-2.93484">
        <ele>129</ele>
        <time>2008-01-18T21:18:32Z</time>
      </trkpt>
      <trkpt lat="47.81421" lon="-2.93535">
        <ele>130.8</ele>
        <time>2008-01-18T21:18:53Z</time>
      </trkpt>
      <trkpt lat="47.81599" lon="-2.93573">
        <ele>133.9</ele>
        <time>2008-01-18T21:20:05Z</time>
      </trkpt>
      <trkpt lat="47.81824" lon="-2.93753">
        <ele>139.5</ele>
        <time>2008-01-18T21:21:47Z</time>
      </trkpt>
      <trkpt lat="47.81862" lon="-2.93707">
        <ele>140.9</ele>
        <time>2008-01-18T21:22:07Z</time>
      </trkpt>
      <trkpt lat="47.81972" lon="-2.93771">
        <ele>141.4</ele>
        <time>2008-01-18T21:22:54Z</time>
      </trkpt>
      <trkpt lat="47.82072" lon="-2.93613">
        <ele>143</ele>
        <time>2008-01-18T21:23:52Z</time>
      </trkpt>
      <trkpt lat="47.8226" lon="-2.9361">
        <ele>140.6</ele>
        <time>2008-01-18T21:25:08Z</time>
      </trkpt>
      <trkpt lat="47.82451" lon="-2.94068">
        <ele>136</ele>
        <time>2008-01-18T21:27:32Z</time>
      </trkpt>
      <trkpt lat="47.82467" lon="-2.94206">
        <ele>136</ele>
        <time>2008-01-18T21:28:10Z</time>
      </trkpt>
      <trkpt lat="47.8262" lon="-2.94951">
        <ele>137</ele>
        <time>2008-01-18T21:31:39Z</time>
      </trkpt>
      <trkpt lat="47.82702" lon="-2.9525">
        <ele>137</ele>
        <time>2008-01-18T21:33:06Z</time>
      </trkpt>
      <trkpt lat="47.82784" lon="-2.95447">
        <ele>134.6</ele>
        <time>2008-01-18T21:34:09Z</time>
      </trkpt>
      <trkpt lat="47.82942" lon="-2.95783">
        <ele>128.8</ele>
        <time>2008-01-18T21:35:59Z</time>
      </trkpt>
      <trkpt lat="47.82974" lon="-2.95938">
        <ele>127.2</ele>
        <time>2008-01-18T21:36:42Z</time>
      </trkpt>
      <trkpt lat="47.82978" lon="-2.96049">
        <ele>125.9</ele>
        <time>2008-01-18T21:37:12Z</time>
      </trkpt>
      <trkpt lat="47.83023" lon="-2.96251">
        <ele>126</ele>
        <time>2008-01-18T21:38:09Z</time>
      </trkpt>
      <trkpt lat="47.82945" lon="-2.96769">
        <ele>120</ele>
        <time>2008-01-18T21:40:32Z</time>
      </trkpt>
      <trkpt lat="47.82893" lon="-2.97018">
        <ele>122.1</ele>
        <time>2008-01-18T21:41:42Z</time>
      </trkpt>
      <trkpt lat="47.82669" lon="-2.97285">
        <ele>109.5</ele>
        <time>2008-01-18T21:43:37Z</time>
      </trkpt>
      <trkpt lat="47.82528" lon="-2.97456">
        <ele>91.9</ele>
        <time>2008-01-18T21:44:50Z</time>
      </trkpt>
      <trkpt lat="47.8252" lon="-2.97542">
        <ele>90.2</ele>
        <time>2008-01-18T21:45:13Z</time>
      </trkpt>
      <trkpt lat="47.82496" lon="-2.97542">
        <ele>90.7</ele>
        <time>2008-01-18T21:45:23Z</time>
      </trkpt>
      <trkpt lat="47.82428" lon="-2.97458">
        <ele>89.2</ele>
        <time>2008-01-18T21:45:58Z</time>
      </trkpt>
      <trkpt lat="47.82327" lon="-2.97391">
        <ele>89.9</ele>
        <time>2008-01-18T21:46:42Z</time>
      </trkpt>
      <trkpt lat="47.82252" lon="-2.97303">
        <ele>83.6</ele>
        <time>2008-01-18T21:47:20Z</time>
      </trkpt>
      <trkpt lat="47.82167" lon="-2.97257">
        <ele>80.6</ele>
        <time>2008-01-18T21:47:57Z</time>
      </trkpt>
      <trkpt lat="47.82075" lon="-2.97191">
        <ele>76.1</ele>
        <time>2008-01-18T21:48:38Z</time>
      </trkpt>
      <trkpt lat="47.82017" lon="-2.97118">
        <ele>73.9</ele>
        <time>2008-01-18T21:49:08Z</time>
      </trkpt>
      <trkpt lat="47.81958" lon="-2.97131">
        <ele>72.4</ele>
        <time>2008-01-18T21:49:32Z</time>
      </trkpt>
      <trkpt lat="47.81913" lon="-2.97148">
        <ele>77.8</ele>
        <time>2008-01-18T21:49:50Z</time>
      </trkpt>
      <trkpt lat="47.81871" lon="-2.97217">
        <ele>86.5</ele>
        <time>2008-01-18T21:50:16Z</time>
      </trkpt>
      <trkpt lat="47.81821" lon="-2.97272">
        <ele>94.7</ele>
        <time>2008-01-18T21:50:40Z</time>
      </trkpt>
      <trkpt lat="47.81783" lon="-2.97283">
        <ele>98.5</ele>
        <time>2008-01-18T21:50:56Z</time>
      </trkpt>
      <trkpt lat="47.81691" lon="-2.97247">
        <ele>98</ele>
        <time>2008-01-18T21:51:34Z</time>
      </trkpt>
      <trkpt lat="47.81639" lon="-2.97219">
        <ele>98.9</ele>
        <time>2008-01-18T21:51:56Z</time>
      </trkpt>
      <trkpt lat="47.81606" lon="-2.97195">
        <ele>101</ele>
        <time>2008-01-18T21:52:11Z</time>
      </trkpt>
      <trkpt lat="47.81659" lon="-2.97602">
        <ele>115</ele>
        <time>2008-01-18T21:54:02Z</time>
      </trkpt>
      <trkpt lat="47.81667" lon="-2.97738">
        <ele>112.3</ele>
        <time>2008-01-18T21:54:39Z</time>
      </trkpt>
      <trkpt lat="47.81641" lon="-2.97861">
        <ele>113.7</ele>
        <time>2008-01-18T21:55:14Z</time>
      </trkpt>
      <trkpt lat="47.81669" lon="-2.98011">
        <ele>117.4</ele>
        <time>2008-01-18T21:55:55Z</time>
      </trkpt>
      <trkpt lat="47.81734" lon="-2.98328">
        <ele>122.1</ele>
        <time>2008-01-18T21:57:24Z</time>
      </trkpt>
      <trkpt lat="47.81723" lon="-2.98368">
        <ele>122.7</ele>
        <time>2008-01-18T21:57:36Z</time>
      </trkpt>
      <trkpt lat="47.81797" lon="-2.9869">
        <ele>121.6</ele>
        <time>2008-01-18T21:59:07Z</time>
      </trkpt>
      <trkpt lat="47.81776" lon="-2.98706">
        <ele>121.3</ele>
        <time>2008-01-18T21:59:17Z</time>
      </trkpt>
      <trkpt lat="47.81804" lon="-2.98835">
        <ele>118.9</ele>
        <time>2008-01-18T21:59:54Z</time>
      </trkpt>
      <trkpt lat="47.82451" lon="-2.98978">
        <ele>118</ele>
        <time>2008-01-18T22:04:15Z</time>
      </trkpt>
      <trkpt lat="47.82551" lon="-2.98998">
        <ele>116.7</ele>
        <time>2008-01-18T22:04:56Z</time>
      </trkpt>
      <trkpt lat="47.82651" lon="-2.99082">
        <ele>118.4</ele>
        <time>2008-01-18T22:05:42Z</time>
      </trkpt>
      <trkpt lat="47.82754" lon="-2.99216">
        <ele>119.7</ele>
        <time>2008-01-18T22:06:36Z</time>
      </trkpt>
      <trkpt lat="47.82904" lon="-2.99353">
        <ele>123.9</ele>
        <time>2008-01-18T22:07:47Z</time>
      </trkpt>
      <trkpt lat="47.83034" lon="-2.99416">
        <ele>123.7</ele>
        <time>2008-01-18T22:08:42Z</time>
      </trkpt>
      <trkpt lat="47.83063" lon="-2.99543">
        <ele>120.2</ele>
        <time>2008-01-18T22:09:18Z</time>
      </trkpt>
      <trkpt lat="47.83061" lon="-2.99681">
        <ele>117.7</ele>
        <time>2008-01-18T22:09:55Z</time>
      </trkpt>
      <trkpt lat="47.83093" lon="-2.99888">
        <ele>117.8</ele>
        <time>2008-01-18T22:10:52Z</time>
      </trkpt>
      <trkpt lat="47.83098" lon="-3.00056">
        <ele>115.1</ele>
        <time>2008-01-18T22:11:37Z</time>
      </trkpt>
      <trkpt lat="47.82934" lon="-3.00116">
        <ele>107.4</ele>
        <time>2008-01-18T22:12:45Z</time>
      </trkpt>
      <trkpt lat="47.82839" lon="-3.00114">
        <ele>104.9</ele>
        <time>2008-01-18T22:13:23Z</time>
      </trkpt>
      <trkpt lat="47.82781" lon="-3.00509">
        <ele>105.1</ele>
        <time>2008-01-18T22:15:12Z</time>
      </trkpt>
      <trkpt lat="47.82864" lon="-3.00808">
        <ele>112.5</ele>
        <time>2008-01-18T22:16:39Z</time>
      </trkpt>
      <trkpt lat="47.82728" lon="-3.0108">
        <ele>117.6</ele>
        <time>2008-01-18T22:18:10Z</time>
      </trkpt>
      <trkpt lat="47.82982" lon="-3.01187">
        <ele>112.5</ele>
        <time>2008-01-18T22:19:56Z</time>
      </trkpt>
      <trkpt lat="47.82917" lon="-3.01622">
        <ele>119.4</ele>
        <time>2008-01-18T22:21:56Z</time>
      </trkpt>
      <trkpt lat="47.82594" lon="-3.01494">
        <ele>121</ele>
        <time>2008-01-18T22:24:10Z</time>
      </trkpt>
      <trkpt lat="47.82604" lon="-3.02183">
        <ele>111</ele>
        <time>2008-01-18T22:27:15Z</time>
      </trkpt>
      <trkpt lat="47.82658" lon="-3.02786">
        <ele>93.3</ele>
        <time>2008-01-18T22:29:58Z</time>
      </trkpt>
      <trkpt lat="47.82717" lon="-3.02783">
        <ele>95.7</ele>
        <time>2008-01-18T22:30:22Z</time>
      </trkpt>
      <trkpt lat="47.82885" lon="-3.02712">
        <ele>104.9</ele>
        <time>2008-01-18T22:31:32Z</time>
      </trkpt>
      <trkpt lat="47.83552" lon="-3.02439">
        <ele>114.6</ele>
        <time>2008-01-18T22:36:09Z</time>
      </trkpt>
      <trkpt lat="47.83583" lon="-3.02415">
        <ele>116.1</ele>
        <time>2008-01-18T22:36:23Z</time>
      </trkpt>
      <trkpt lat="47.8365" lon="-3.02436">
        <ele>117.6</ele>
        <time>2008-01-18T22:36:50Z</time>
      </trkpt>
      <trkpt lat="47.83831" lon="-3.02156">
        <ele>117.9</ele>
        <time>2008-01-18T22:38:35Z</time>
      </trkpt>
      <trkpt lat="47.83963" lon="-3.02581">
        <ele>117</ele>
        <time>2008-01-18T22:40:40Z</time>
      </trkpt>
      <trkpt lat="47.841" lon="-3.02789">
        <ele>116</ele>
        <time>2008-01-18T22:41:59Z</time>
      </trkpt>
      <trkpt lat="47.8422" lon="-3.02924">
        <ele>116</ele>
        <time>2008-01-18T22:42:59Z</time>
      </trkpt>
      <trkpt lat="47.84323" lon="-3.0318">
        <ele>107.1</ele>
        <time>2008-01-18T22:44:19Z</time>
      </trkpt>
      <trkpt lat="47.84439" lon="-3.03272">
        <ele>109.6</ele>
        <time>2008-01-18T22:45:12Z</time>
      </trkpt>
      <trkpt lat="47.84558" lon="-3.03364">
        <ele>110.3</ele>
        <time>2008-01-18T22:46:05Z</time>
      </trkpt>
      <trkpt lat="47.84635" lon="-3.03375">
        <ele>111</ele>
        <time>2008-01-18T22:46:36Z</time>
      </trkpt>
      <trkpt lat="47.84709" lon="-3.03323">
        <ele>110.2</ele>
        <time>2008-01-18T22:47:09Z</time>
      </trkpt>
      <trkpt lat="47.84821" lon="-3.03267">
        <ele>103.3</ele>
        <time>2008-01-18T22:47:56Z</time>
      </trkpt>
      <trkpt lat="47.84833" lon="-3.03054">
        <ele>104.1</ele>
        <time>2008-01-18T22:48:54Z</time>
      </trkpt>
      <trkpt lat="47.8486" lon="-3.02922">
        <ele>97</ele>
        <time>2008-01-18T22:49:31Z</time>
      </trkpt>
      <trkpt lat="47.84951" lon="-3.03044">
        <ele>93.1</ele>
        <time>2008-01-18T22:50:20Z</time>
      </trkpt>
      <trkpt lat="47.84998" lon="-3.0307">
        <ele>92.2</ele>
        <time>2008-01-18T22:50:40Z</time>
      </trkpt>
      <trkpt lat="47.85118" lon="-3.02922">
        <ele>98</ele>
        <time>2008-01-18T22:51:42Z</time>
      </trkpt>
      <trkpt lat="47.85236" lon="-3.02805">
        <ele>93.2</ele>
        <time>2008-01-18T22:52:39Z</time>
      </trkpt>
      <trkpt lat="47.85514" lon="-3.02642">
        <ele>85.3</ele>
        <time>2008-01-18T22:54:39Z</time>
      </trkpt>
      <trkpt lat="47.85617" lon="-3.03238">
        <ele>86.4</ele>
        <time>2008-01-18T22:57:24Z</time>
      </trkpt>
      <trkpt lat="47.85655" lon="-3.0338">
        <ele>86.7</ele>
        <time>2008-01-18T22:58:05Z</time>
      </trkpt>
      <trkpt lat="47.87225" lon="-3.03413">
        <ele>41.5</ele>
        <time>2008-01-18T23:08:34Z</time>
      </trkpt>
    </trkseg>
  </trk>
</gpx>